sensor_id;sensor_type;location;lat;lon;timestamp;P1;durP1;ratioP1;P2;durP2;ratioP2
19219;SDS011;9744;49.364;7.484;2023-08-30T00:01:12;17.15;;;15.25;;
19219;SDS011;9744;49.364;7.484;2023-08-30T00:03:40;20.92;;;15.98;;
19219;SDS011;9744;49.364;7.484;2023-08-30T00:06:07;18.75;;;15.73;;
19219;SDS011;9744;49.364;7.484;2023-08-30T00:08:34;18.27;;;13.35;;
19219;SDS011;9744;49.364;7.484;2023-08-30T00:11:03;18.38;;;14.57;;
19219;SDS011;9744;49.364;7.484;2023-08-30T00:13:31;18.58;;;16.52;;
19219;SDS011;9744;49.364;7.484;2023-08-30T00:15:59;20.65;;;16.50;;
19219;SDS011;9744;49.364;7.484;2023-08-30T00:18:28;21.23;;;17.25;;
19219;SDS011;9744;49.364;7.484;2023-08-30T00:20:55;26.30;;;19.10;;
19219;SDS011;9744;49.364;7.484;2023-08-30T00:23:23;23.42;;;19.55;;
19219;SDS011;9744;49.364;7.484;2023-08-30T00:25:50;27.17;;;20.38;;
19219;SDS011;9744;49.364;7.484;2023-08-30T00:28:19;26.48;;;19.98;;
19219;SDS011;9744;49.364;7.484;2023-08-30T00:30:46;27.17;;;20.48;;
19219;SDS011;9744;49.364;7.484;2023-08-30T00:33:19;22.52;;;19.42;;
19219;SDS011;9744;49.364;7.484;2023-08-30T00:35:46;22.20;;;18.73;;
19219;SDS011;9744;49.364;7.484;2023-08-30T00:38:13;23.98;;;19.83;;
19219;SDS011;9744;49.364;7.484;2023-08-30T00:40:41;22.55;;;19.23;;
19219;SDS011;9744;49.364;7.484;2023-08-30T00:43:09;22.48;;;17.67;;
19219;SDS011;9744;49.364;7.484;2023-08-30T00:45:38;24.88;;;18.92;;
19219;SDS011;9744;49.364;7.484;2023-08-30T00:48:06;24.35;;;19.05;;
19219;SDS011;9744;49.364;7.484;2023-08-30T00:50:34;24.55;;;19.15;;
19219;SDS011;9744;49.364;7.484;2023-08-30T00:53:02;24.23;;;19.95;;
19219;SDS011;9744;49.364;7.484;2023-08-30T00:55:32;24.42;;;19.15;;
19219;SDS011;9744;49.364;7.484;2023-08-30T00:58:00;22.02;;;17.25;;
19219;SDS011;9744;49.364;7.484;2023-08-30T01:00:27;24.23;;;17.52;;
19219;SDS011;9744;49.364;7.484;2023-08-30T01:02:57;50.45;;;20.13;;
19219;SDS011;9744;49.364;7.484;2023-08-30T01:05:26;26.17;;;18.48;;
19219;SDS011;9744;49.364;7.484;2023-08-30T01:07:53;25.13;;;17.23;;
19219;SDS011;9744;49.364;7.484;2023-08-30T01:10:22;68.55;;;18.05;;
19219;SDS011;9744;49.364;7.484;2023-08-30T01:12:56;101.10;;;20.88;;
19219;SDS011;9744;49.364;7.484;2023-08-30T01:15:27;26.02;;;17.90;;
19219;SDS011;9744;49.364;7.484;2023-08-30T01:17:57;23.63;;;19.05;;
19219;SDS011;9744;49.364;7.484;2023-08-30T01:20:27;29.92;;;23.00;;
19219;SDS011;9744;49.364;7.484;2023-08-30T01:22:58;47.17;;;23.77;;
19219;SDS011;9744;49.364;7.484;2023-08-30T01:25:31;42.25;;;24.40;;
19219;SDS011;9744;49.364;7.484;2023-08-30T01:28:05;33.10;;;23.40;;
19219;SDS011;9744;49.364;7.484;2023-08-30T01:30:33;50.03;;;23.67;;
19219;SDS011;9744;49.364;7.484;2023-08-30T01:33:03;129.40;;;25.83;;
19219;SDS011;9744;49.364;7.484;2023-08-30T01:35:31;176.52;;;26.70;;
19219;SDS011;9744;49.364;7.484;2023-08-30T01:38:02;201.90;;;27.85;;
19219;SDS011;9744;49.364;7.484;2023-08-30T01:40:32;236.55;;;29.77;;
19219;SDS011;9744;49.364;7.484;2023-08-30T01:43:02;116.63;;;27.10;;
19219;SDS011;9744;49.364;7.484;2023-08-30T01:45:32;123.95;;;28.08;;
19219;SDS011;9744;49.364;7.484;2023-08-30T01:48:01;159.70;;;28.92;;
19219;SDS011;9744;49.364;7.484;2023-08-30T01:50:30;120.00;;;28.08;;
19219;SDS011;9744;49.364;7.484;2023-08-30T01:52:59;116.88;;;27.15;;
19219;SDS011;9744;49.364;7.484;2023-08-30T01:55:27;72.13;;;26.13;;
19219;SDS011;9744;49.364;7.484;2023-08-30T01:57:57;64.20;;;26.58;;
19219;SDS011;9744;49.364;7.484;2023-08-30T02:00:25;307.65;;;29.35;;
19219;SDS011;9744;49.364;7.484;2023-08-30T02:02:54;456.75;;;31.35;;
19219;SDS011;9744;49.364;7.484;2023-08-30T02:05:22;334.20;;;30.13;;
19219;SDS011;9744;49.364;7.484;2023-08-30T02:07:50;302.63;;;31.65;;
19219;SDS011;9744;49.364;7.484;2023-08-30T02:10:24;372.33;;;30.10;;
19219;SDS011;9744;49.364;7.484;2023-08-30T02:12:58;456.70;;;33.22;;
19219;SDS011;9744;49.364;7.484;2023-08-30T02:15:28;317.63;;;29.98;;
19219;SDS011;9744;49.364;7.484;2023-08-30T02:17:59;518.22;;;34.50;;
19219;SDS011;9744;49.364;7.484;2023-08-30T02:20:28;642.78;;;34.33;;
19219;SDS011;9744;49.364;7.484;2023-08-30T02:22:57;568.33;;;33.58;;
19219;SDS011;9744;49.364;7.484;2023-08-30T02:25:25;731.33;;;36.67;;
19219;SDS011;9744;49.364;7.484;2023-08-30T02:27:53;740.60;;;36.53;;
19219;SDS011;9744;49.364;7.484;2023-08-30T02:30:22;621.55;;;34.95;;
19219;SDS011;9744;49.364;7.484;2023-08-30T02:32:52;697.42;;;36.60;;
19219;SDS011;9744;49.364;7.484;2023-08-30T02:35:21;695.28;;;39.60;;
19219;SDS011;9744;49.364;7.484;2023-08-30T02:37:48;878.55;;;40.13;;
19219;SDS011;9744;49.364;7.484;2023-08-30T02:40:15;859.53;;;42.60;;
19219;SDS011;9744;49.364;7.484;2023-08-30T02:42:43;709.70;;;39.70;;
19219;SDS011;9744;49.364;7.484;2023-08-30T02:45:10;853.05;;;45.45;;
19219;SDS011;9744;49.364;7.484;2023-08-30T02:47:37;764.00;;;42.83;;
19219;SDS011;9744;49.364;7.484;2023-08-30T02:50:04;709.50;;;44.28;;
19219;SDS011;9744;49.364;7.484;2023-08-30T02:52:34;901.65;;;50.13;;
19219;SDS011;9744;49.364;7.484;2023-08-30T02:55:02;870.03;;;48.92;;
19219;SDS011;9744;49.364;7.484;2023-08-30T02:57:29;799.78;;;47.83;;
19219;SDS011;9744;49.364;7.484;2023-08-30T02:59:57;670.63;;;43.97;;
19219;SDS011;9744;49.364;7.484;2023-08-30T03:02:24;616.03;;;42.40;;
19219;SDS011;9744;49.364;7.484;2023-08-30T03:04:51;598.55;;;42.50;;
19219;SDS011;9744;49.364;7.484;2023-08-30T03:07:20;708.80;;;43.80;;
19219;SDS011;9744;49.364;7.484;2023-08-30T03:09:52;675.35;;;41.72;;
19219;SDS011;9744;49.364;7.484;2023-08-30T03:12:20;705.97;;;44.33;;
19219;SDS011;9744;49.364;7.484;2023-08-30T03:14:47;665.17;;;40.30;;
19219;SDS011;9744;49.364;7.484;2023-08-30T03:17:16;664.92;;;40.03;;
19219;SDS011;9744;49.364;7.484;2023-08-30T03:19:43;617.72;;;41.78;;
19219;SDS011;9744;49.364;7.484;2023-08-30T03:22:11;679.97;;;43.08;;
19219;SDS011;9744;49.364;7.484;2023-08-30T03:24:38;563.65;;;39.10;;
19219;SDS011;9744;49.364;7.484;2023-08-30T03:27:06;667.75;;;42.65;;
19219;SDS011;9744;49.364;7.484;2023-08-30T03:29:34;575.60;;;40.97;;
19219;SDS011;9744;49.364;7.484;2023-08-30T03:32:01;599.88;;;38.17;;
19219;SDS011;9744;49.364;7.484;2023-08-30T03:34:28;532.63;;;38.05;;
19219;SDS011;9744;49.364;7.484;2023-08-30T03:36:55;528.50;;;40.50;;
19219;SDS011;9744;49.364;7.484;2023-08-30T03:39:23;494.35;;;37.65;;
19219;SDS011;9744;49.364;7.484;2023-08-30T03:41:50;519.83;;;39.88;;
19219;SDS011;9744;49.364;7.484;2023-08-30T03:44:18;500.42;;;37.85;;
19219;SDS011;9744;49.364;7.484;2023-08-30T03:46:46;502.13;;;35.40;;
19219;SDS011;9744;49.364;7.484;2023-08-30T03:49:13;646.58;;;39.08;;
19219;SDS011;9744;49.364;7.484;2023-08-30T03:51:40;583.47;;;39.05;;
19219;SDS011;9744;49.364;7.484;2023-08-30T03:54:07;540.70;;;39.30;;
19219;SDS011;9744;49.364;7.484;2023-08-30T03:56:38;568.75;;;41.78;;
19219;SDS011;9744;49.364;7.484;2023-08-30T03:59:06;587.53;;;38.90;;
19219;SDS011;9744;49.364;7.484;2023-08-30T04:01:34;538.47;;;41.78;;
19219;SDS011;9744;49.364;7.484;2023-08-30T04:04:02;696.50;;;44.08;;
19219;SDS011;9744;49.364;7.484;2023-08-30T04:06:30;677.63;;;42.97;;
19219;SDS011;9744;49.364;7.484;2023-08-30T04:08:58;657.42;;;44.15;;
19219;SDS011;9744;49.364;7.484;2023-08-30T04:11:25;588.63;;;42.78;;
19219;SDS011;9744;49.364;7.484;2023-08-30T04:13:52;721.47;;;44.80;;
19219;SDS011;9744;49.364;7.484;2023-08-30T04:16:19;736.28;;;45.50;;
19219;SDS011;9744;49.364;7.484;2023-08-30T04:18:48;800.15;;;47.05;;
19219;SDS011;9744;49.364;7.484;2023-08-30T04:21:15;774.80;;;45.03;;
19219;SDS011;9744;49.364;7.484;2023-08-30T04:23:42;572.92;;;43.22;;
19219;SDS011;9744;49.364;7.484;2023-08-30T04:26:10;719.60;;;44.05;;
19219;SDS011;9744;49.364;7.484;2023-08-30T04:28:37;672.58;;;45.22;;
19219;SDS011;9744;49.364;7.484;2023-08-30T04:31:04;712.80;;;44.00;;
19219;SDS011;9744;49.364;7.484;2023-08-30T04:33:32;762.25;;;44.95;;
19219;SDS011;9744;49.364;7.484;2023-08-30T04:36:02;841.42;;;44.00;;
19219;SDS011;9744;49.364;7.484;2023-08-30T04:38:31;664.80;;;45.28;;
19219;SDS011;9744;49.364;7.484;2023-08-30T04:40:58;531.47;;;41.15;;
19219;SDS011;9744;49.364;7.484;2023-08-30T04:43:27;529.58;;;39.20;;
19219;SDS011;9744;49.364;7.484;2023-08-30T04:45:54;837.83;;;45.90;;
19219;SDS011;9744;49.364;7.484;2023-08-30T04:48:22;749.53;;;45.03;;
19219;SDS011;9744;49.364;7.484;2023-08-30T04:50:57;828.53;;;49.95;;
19219;SDS011;9744;49.364;7.484;2023-08-30T04:53:27;942.05;;;54.65;;
19219;SDS011;9744;49.364;7.484;2023-08-30T04:55:55;828.40;;;49.45;;
19219;SDS011;9744;49.364;7.484;2023-08-30T04:58:23;905.13;;;53.78;;
19219;SDS011;9744;49.364;7.484;2023-08-30T05:00:50;838.08;;;52.20;;
19219;SDS011;9744;49.364;7.484;2023-08-30T05:03:17;771.50;;;48.83;;
19219;SDS011;9744;49.364;7.484;2023-08-30T05:05:45;890.90;;;53.88;;
19219;SDS011;9744;49.364;7.484;2023-08-30T05:08:14;854.63;;;53.40;;
19219;SDS011;9744;49.364;7.484;2023-08-30T05:10:43;846.35;;;52.20;;
19219;SDS011;9744;49.364;7.484;2023-08-30T05:13:12;922.38;;;52.13;;
19219;SDS011;9744;49.364;7.484;2023-08-30T05:15:41;762.08;;;50.75;;
19219;SDS011;9744;49.364;7.484;2023-08-30T05:18:08;965.67;;;56.83;;
19219;SDS011;9744;49.364;7.484;2023-08-30T05:20:35;823.38;;;53.95;;
19219;SDS011;9744;49.364;7.484;2023-08-30T05:23:03;708.65;;;51.03;;
19219;SDS011;9744;49.364;7.484;2023-08-30T05:25:30;887.03;;;51.63;;
19219;SDS011;9744;49.364;7.484;2023-08-30T05:27:59;880.40;;;53.22;;
19219;SDS011;9744;49.364;7.484;2023-08-30T05:30:27;1113.85;;;58.33;;
19219;SDS011;9744;49.364;7.484;2023-08-30T05:32:56;742.35;;;48.50;;
19219;SDS011;9744;49.364;7.484;2023-08-30T05:35:44;699.17;;;48.58;;
19219;SDS011;9744;49.364;7.484;2023-08-30T05:38:49;567.63;;;48.83;;
19219;SDS011;9744;49.364;7.484;2023-08-30T05:41:32;584.10;;;45.45;;
19219;SDS011;9744;49.364;7.484;2023-08-30T05:44:00;661.13;;;46.80;;
19219;SDS011;9744;49.364;7.484;2023-08-30T05:49:13;848.45;;;53.53;;
19219;SDS011;9744;49.364;7.484;2023-08-30T05:51:40;722.15;;;51.83;;
19219;SDS011;9744;49.364;7.484;2023-08-30T05:54:08;695.40;;;48.50;;
19219;SDS011;9744;49.364;7.484;2023-08-30T05:56:35;542.72;;;49.15;;
19219;SDS011;9744;49.364;7.484;2023-08-30T05:59:03;646.50;;;47.85;;
19219;SDS011;9744;49.364;7.484;2023-08-30T06:01:31;717.85;;;49.60;;
19219;SDS011;9744;49.364;7.484;2023-08-30T06:03:58;445.55;;;45.10;;
19219;SDS011;9744;49.364;7.484;2023-08-30T06:06:25;633.38;;;47.35;;
19219;SDS011;9744;49.364;7.484;2023-08-30T06:11:45;540.05;;;45.22;;
19219;SDS011;9744;49.364;7.484;2023-08-30T06:14:13;573.25;;;48.80;;
19219;SDS011;9744;49.364;7.484;2023-08-30T06:16:40;631.65;;;49.15;;
19219;SDS011;9744;49.364;7.484;2023-08-30T06:19:09;511.77;;;45.45;;
19219;SDS011;9744;49.364;7.484;2023-08-30T06:21:37;409.17;;;43.58;;
19219;SDS011;9744;49.364;7.484;2023-08-30T06:24:06;535.58;;;44.45;;
19219;SDS011;9744;49.364;7.484;2023-08-30T06:26:33;581.85;;;44.67;;
19219;SDS011;9744;49.364;7.484;2023-08-30T06:29:00;542.08;;;43.90;;
19219;SDS011;9744;49.364;7.484;2023-08-30T06:31:29;602.88;;;47.08;;
19219;SDS011;9744;49.364;7.484;2023-08-30T06:33:57;693.83;;;49.65;;
19219;SDS011;9744;49.364;7.484;2023-08-30T06:36:24;995.97;;;56.85;;
19219;SDS011;9744;49.364;7.484;2023-08-30T06:38:52;770.85;;;48.13;;
19219;SDS011;9744;49.364;7.484;2023-08-30T06:41:19;946.08;;;54.88;;
19219;SDS011;9744;49.364;7.484;2023-08-30T06:43:47;632.15;;;50.28;;
19219;SDS011;9744;49.364;7.484;2023-08-30T06:46:14;723.55;;;50.38;;
19219;SDS011;9744;49.364;7.484;2023-08-30T06:48:44;708.83;;;48.97;;
19219;SDS011;9744;49.364;7.484;2023-08-30T06:51:12;747.08;;;53.95;;
19219;SDS011;9744;49.364;7.484;2023-08-30T06:53:39;599.83;;;51.78;;
19219;SDS011;9744;49.364;7.484;2023-08-30T06:56:07;604.35;;;48.85;;
19219;SDS011;9744;49.364;7.484;2023-08-30T06:58:34;878.28;;;52.75;;
19219;SDS011;9744;49.364;7.484;2023-08-30T07:03:33;415.48;;;45.60;;
19219;SDS011;9744;49.364;7.484;2023-08-30T07:06:01;764.85;;;52.30;;
19219;SDS011;9744;49.364;7.484;2023-08-30T07:08:29;812.80;;;50.15;;
19219;SDS011;9744;49.364;7.484;2023-08-30T07:10:57;650.33;;;51.65;;
19219;SDS011;9744;49.364;7.484;2023-08-30T07:13:24;720.90;;;50.72;;
19219;SDS011;9744;49.364;7.484;2023-08-30T07:15:51;469.20;;;46.00;;
19219;SDS011;9744;49.364;7.484;2023-08-30T07:18:19;160.38;;;42.30;;
19219;SDS011;9744;49.364;7.484;2023-08-30T07:20:46;258.15;;;45.30;;
19219;SDS011;9744;49.364;7.484;2023-08-30T07:23:15;233.55;;;43.90;;
19219;SDS011;9744;49.364;7.484;2023-08-30T07:25:44;206.25;;;42.72;;
19219;SDS011;9744;49.364;7.484;2023-08-30T07:28:11;85.85;;;40.45;;
19219;SDS011;9744;49.364;7.484;2023-08-30T07:30:38;78.47;;;39.97;;
19219;SDS011;9744;49.364;7.484;2023-08-30T07:33:06;93.13;;;39.67;;
19219;SDS011;9744;49.364;7.484;2023-08-30T07:35:34;132.65;;;39.75;;
19219;SDS011;9744;49.364;7.484;2023-08-30T07:38:02;72.20;;;37.38;;
19219;SDS011;9744;49.364;7.484;2023-08-30T07:40:31;105.03;;;37.05;;
19219;SDS011;9744;49.364;7.484;2023-08-30T07:42:58;336.98;;;37.63;;
19219;SDS011;9744;49.364;7.484;2023-08-30T07:45:25;85.43;;;32.63;;
19219;SDS011;9744;49.364;7.484;2023-08-30T07:47:52;187.50;;;35.83;;
19219;SDS011;9744;49.364;7.484;2023-08-30T07:50:20;322.45;;;37.60;;
19219;SDS011;9744;49.364;7.484;2023-08-30T07:52:47;352.67;;;39.40;;
19219;SDS011;9744;49.364;7.484;2023-08-30T07:55:14;158.70;;;38.45;;
19219;SDS011;9744;49.364;7.484;2023-08-30T07:57:43;255.75;;;38.72;;
19219;SDS011;9744;49.364;7.484;2023-08-30T08:00:10;126.07;;;35.72;;
19219;SDS011;9744;49.364;7.484;2023-08-30T08:02:39;67.85;;;36.55;;
19219;SDS011;9744;49.364;7.484;2023-08-30T08:05:07;59.28;;;35.85;;
19219;SDS011;9744;49.364;7.484;2023-08-30T08:07:39;60.17;;;36.38;;
19219;SDS011;9744;49.364;7.484;2023-08-30T08:10:10;62.63;;;35.55;;
19219;SDS011;9744;49.364;7.484;2023-08-30T08:15:15;65.72;;;38.08;;
19219;SDS011;9744;49.364;7.484;2023-08-30T08:17:42;62.08;;;37.58;;
19219;SDS011;9744;49.364;7.484;2023-08-30T08:20:24;67.25;;;37.45;;
19219;SDS011;9744;49.364;7.484;2023-08-30T08:22:51;64.93;;;38.58;;
19219;SDS011;9744;49.364;7.484;2023-08-30T08:25:22;63.60;;;38.55;;
19219;SDS011;9744;49.364;7.484;2023-08-30T08:27:51;64.47;;;39.78;;
19219;SDS011;9744;49.364;7.484;2023-08-30T08:35:42;53.92;;;36.05;;
19219;SDS011;9744;49.364;7.484;2023-08-30T08:38:15;57.10;;;37.63;;
19219;SDS011;9744;49.364;7.484;2023-08-30T08:46:12;51.97;;;33.83;;
19219;SDS011;9744;49.364;7.484;2023-08-30T08:48:42;42.72;;;31.48;;
19219;SDS011;9744;49.364;7.484;2023-08-30T08:51:11;43.03;;;30.25;;
19219;SDS011;9744;49.364;7.484;2023-08-30T08:53:39;42.13;;;29.15;;
19219;SDS011;9744;49.364;7.484;2023-08-30T08:56:08;41.40;;;30.02;;
19219;SDS011;9744;49.364;7.484;2023-08-30T08:58:36;38.72;;;28.77;;
19219;SDS011;9744;49.364;7.484;2023-08-30T09:01:08;36.83;;;26.90;;
19219;SDS011;9744;49.364;7.484;2023-08-30T09:03:35;34.20;;;25.50;;
19219;SDS011;9744;49.364;7.484;2023-08-30T09:06:03;33.58;;;24.67;;
19219;SDS011;9744;49.364;7.484;2023-08-30T09:08:31;35.17;;;24.98;;
19219;SDS011;9744;49.364;7.484;2023-08-30T09:10:58;27.42;;;22.27;;
19219;SDS011;9744;49.364;7.484;2023-08-30T09:13:27;30.80;;;21.85;;
19219;SDS011;9744;49.364;7.484;2023-08-30T09:15:56;28.35;;;20.90;;
19219;SDS011;9744;49.364;7.484;2023-08-30T09:18:25;22.45;;;18.25;;
19219;SDS011;9744;49.364;7.484;2023-08-30T09:23:42;20.50;;;16.23;;
19219;SDS011;9744;49.364;7.484;2023-08-30T09:26:09;18.55;;;15.18;;
19219;SDS011;9744;49.364;7.484;2023-08-30T09:28:41;19.67;;;15.15;;
19219;SDS011;9744;49.364;7.484;2023-08-30T09:31:16;18.35;;;14.30;;
19219;SDS011;9744;49.364;7.484;2023-08-30T09:33:46;17.40;;;13.63;;
19219;SDS011;9744;49.364;7.484;2023-08-30T09:36:14;16.92;;;13.18;;
19219;SDS011;9744;49.364;7.484;2023-08-30T09:38:48;14.50;;;11.98;;
19219;SDS011;9744;49.364;7.484;2023-08-30T09:41:16;14.65;;;12.57;;
19219;SDS011;9744;49.364;7.484;2023-08-30T09:43:44;14.75;;;12.23;;
19219;SDS011;9744;49.364;7.484;2023-08-30T09:46:13;14.52;;;11.65;;
19219;SDS011;9744;49.364;7.484;2023-08-30T09:48:40;12.52;;;10.10;;
19219;SDS011;9744;49.364;7.484;2023-08-30T09:51:09;13.73;;;10.77;;
19219;SDS011;9744;49.364;7.484;2023-08-30T09:53:40;11.93;;;9.50;;
19219;SDS011;9744;49.364;7.484;2023-08-30T09:56:13;12.55;;;9.68;;
19219;SDS011;9744;49.364;7.484;2023-08-30T09:58:41;12.10;;;9.85;;
19219;SDS011;9744;49.364;7.484;2023-08-30T10:01:10;15.15;;;9.07;;
19219;SDS011;9744;49.364;7.484;2023-08-30T10:03:38;12.75;;;9.27;;
19219;SDS011;9744;49.364;7.484;2023-08-30T10:06:06;8.48;;;6.65;;
19219;SDS011;9744;49.364;7.484;2023-08-30T10:08:36;9.30;;;7.25;;
19219;SDS011;9744;49.364;7.484;2023-08-30T10:11:05;7.38;;;6.63;;
19219;SDS011;9744;49.364;7.484;2023-08-30T10:13:33;10.35;;;8.10;;
19219;SDS011;9744;49.364;7.484;2023-08-30T10:16:05;8.73;;;6.05;;
19219;SDS011;9744;49.364;7.484;2023-08-30T10:18:33;8.50;;;5.72;;
19219;SDS011;9744;49.364;7.484;2023-08-30T10:21:02;9.25;;;5.25;;
19219;SDS011;9744;49.364;7.484;2023-08-30T10:23:34;8.75;;;5.93;;
19219;SDS011;9744;49.364;7.484;2023-08-30T10:26:04;7.50;;;5.50;;
19219;SDS011;9744;49.364;7.484;2023-08-30T10:28:33;6.25;;;4.93;;
19219;SDS011;9744;49.364;7.484;2023-08-30T10:31:02;6.20;;;4.78;;
19219;SDS011;9744;49.364;7.484;2023-08-30T10:33:31;5.38;;;4.45;;
19219;SDS011;9744;49.364;7.484;2023-08-30T10:36:05;5.75;;;4.03;;
19219;SDS011;9744;49.364;7.484;2023-08-30T10:38:32;7.85;;;3.78;;
19219;SDS011;9744;49.364;7.484;2023-08-30T10:41:08;4.15;;;3.35;;
19219;SDS011;9744;49.364;7.484;2023-08-30T10:43:36;5.20;;;3.88;;
19219;SDS011;9744;49.364;7.484;2023-08-30T10:46:03;6.93;;;4.40;;
19219;SDS011;9744;49.364;7.484;2023-08-30T10:48:36;5.70;;;4.70;;
19219;SDS011;9744;49.364;7.484;2023-08-30T10:51:05;6.18;;;4.18;;
19219;SDS011;9744;49.364;7.484;2023-08-30T10:53:42;5.13;;;3.72;;
19219;SDS011;9744;49.364;7.484;2023-08-30T10:56:11;5.78;;;3.28;;
19219;SDS011;9744;49.364;7.484;2023-08-30T10:58:39;6.75;;;3.78;;
19219;SDS011;9744;49.364;7.484;2023-08-30T11:01:14;6.22;;;4.35;;
19219;SDS011;9744;49.364;7.484;2023-08-30T11:03:43;6.32;;;3.55;;
19219;SDS011;9744;49.364;7.484;2023-08-30T11:06:13;4.03;;;3.28;;
19219;SDS011;9744;49.364;7.484;2023-08-30T11:08:42;4.60;;;3.55;;
19219;SDS011;9744;49.364;7.484;2023-08-30T11:11:11;7.25;;;3.65;;
19219;SDS011;9744;49.364;7.484;2023-08-30T11:13:40;6.07;;;2.72;;
19219;SDS011;9744;49.364;7.484;2023-08-30T11:16:09;6.25;;;2.83;;
19219;SDS011;9744;49.364;7.484;2023-08-30T11:18:37;4.88;;;2.10;;
19219;SDS011;9744;49.364;7.484;2023-08-30T11:21:07;3.25;;;2.45;;
19219;SDS011;9744;49.364;7.484;2023-08-30T11:23:35;4.18;;;2.50;;
19219;SDS011;9744;49.364;7.484;2023-08-30T11:26:02;5.25;;;2.40;;
19219;SDS011;9744;49.364;7.484;2023-08-30T11:28:31;6.07;;;2.50;;
19219;SDS011;9744;49.364;7.484;2023-08-30T11:30:59;4.82;;;2.75;;
19219;SDS011;9744;49.364;7.484;2023-08-30T11:33:26;6.53;;;2.60;;
19219;SDS011;9744;49.364;7.484;2023-08-30T11:35:53;4.88;;;2.55;;
19219;SDS011;9744;49.364;7.484;2023-08-30T11:38:21;4.07;;;2.72;;
19219;SDS011;9744;49.364;7.484;2023-08-30T11:40:49;4.40;;;3.05;;
19219;SDS011;9744;49.364;7.484;2023-08-30T11:43:17;5.95;;;3.20;;
19219;SDS011;9744;49.364;7.484;2023-08-30T11:45:47;6.80;;;2.70;;
19219;SDS011;9744;49.364;7.484;2023-08-30T11:48:22;6.25;;;2.38;;
19219;SDS011;9744;49.364;7.484;2023-08-30T11:50:50;3.80;;;2.45;;
19219;SDS011;9744;49.364;7.484;2023-08-30T11:53:17;8.25;;;3.30;;
19219;SDS011;9744;49.364;7.484;2023-08-30T11:55:45;4.25;;;2.67;;
19219;SDS011;9744;49.364;7.484;2023-08-30T11:58:12;5.10;;;2.70;;
19219;SDS011;9744;49.364;7.484;2023-08-30T12:00:40;5.32;;;2.35;;
19219;SDS011;9744;49.364;7.484;2023-08-30T12:03:08;10.18;;;2.90;;
19219;SDS011;9744;49.364;7.484;2023-08-30T12:05:43;4.78;;;2.58;;
19219;SDS011;9744;49.364;7.484;2023-08-30T12:08:17;5.10;;;2.47;;
19219;SDS011;9744;49.364;7.484;2023-08-30T12:10:45;9.48;;;2.70;;
19219;SDS011;9744;49.364;7.484;2023-08-30T12:13:19;8.50;;;2.78;;
19219;SDS011;9744;49.364;7.484;2023-08-30T12:15:48;4.03;;;2.20;;
19219;SDS011;9744;49.364;7.484;2023-08-30T12:18:17;3.20;;;2.30;;
19219;SDS011;9744;49.364;7.484;2023-08-30T12:20:52;3.45;;;2.35;;
19219;SDS011;9744;49.364;7.484;2023-08-30T12:23:20;3.97;;;2.40;;
19219;SDS011;9744;49.364;7.484;2023-08-30T12:26:01;7.35;;;2.35;;
19219;SDS011;9744;49.364;7.484;2023-08-30T12:28:31;4.30;;;2.63;;
19219;SDS011;9744;49.364;7.484;2023-08-30T12:30:59;3.55;;;2.30;;
19219;SDS011;9744;49.364;7.484;2023-08-30T12:33:36;3.38;;;2.20;;
19219;SDS011;9744;49.364;7.484;2023-08-30T12:36:06;3.85;;;2.22;;
19219;SDS011;9744;49.364;7.484;2023-08-30T12:38:33;4.55;;;2.17;;
19219;SDS011;9744;49.364;7.484;2023-08-30T12:41:01;7.47;;;2.50;;
19219;SDS011;9744;49.364;7.484;2023-08-30T12:43:28;4.40;;;2.10;;
19219;SDS011;9744;49.364;7.484;2023-08-30T12:45:55;4.28;;;1.85;;
19219;SDS011;9744;49.364;7.484;2023-08-30T12:48:23;4.45;;;2.33;;
19219;SDS011;9744;49.364;7.484;2023-08-30T12:50:57;6.95;;;2.25;;
19219;SDS011;9744;49.364;7.484;2023-08-30T12:53:28;8.40;;;2.30;;
19219;SDS011;9744;49.364;7.484;2023-08-30T12:55:56;7.88;;;2.65;;
19219;SDS011;9744;49.364;7.484;2023-08-30T12:58:23;6.38;;;2.83;;
19219;SDS011;9744;49.364;7.484;2023-08-30T13:00:51;3.42;;;2.45;;
19219;SDS011;9744;49.364;7.484;2023-08-30T13:03:19;7.65;;;2.30;;
19219;SDS011;9744;49.364;7.484;2023-08-30T13:05:46;7.20;;;2.55;;
19219;SDS011;9744;49.364;7.484;2023-08-30T13:08:15;9.40;;;2.83;;
19219;SDS011;9744;49.364;7.484;2023-08-30T13:10:42;4.85;;;2.53;;
19219;SDS011;9744;49.364;7.484;2023-08-30T13:13:10;2.90;;;2.10;;
19219;SDS011;9744;49.364;7.484;2023-08-30T13:18:14;6.03;;;2.40;;
19219;SDS011;9744;49.364;7.484;2023-08-30T13:20:41;4.18;;;2.30;;
19219;SDS011;9744;49.364;7.484;2023-08-30T13:23:10;4.15;;;2.30;;
19219;SDS011;9744;49.364;7.484;2023-08-30T13:25:40;3.20;;;2.17;;
19219;SDS011;9744;49.364;7.484;2023-08-30T13:28:13;5.78;;;2.88;;
19219;SDS011;9744;49.364;7.484;2023-08-30T13:30:43;3.38;;;2.25;;
19219;SDS011;9744;49.364;7.484;2023-08-30T13:33:11;5.82;;;2.58;;
19219;SDS011;9744;49.364;7.484;2023-08-30T13:35:38;3.58;;;2.35;;
19219;SDS011;9744;49.364;7.484;2023-08-30T13:38:06;5.60;;;2.60;;
19219;SDS011;9744;49.364;7.484;2023-08-30T13:40:33;3.83;;;2.50;;
19219;SDS011;9744;49.364;7.484;2023-08-30T13:43:02;4.38;;;2.35;;
19219;SDS011;9744;49.364;7.484;2023-08-30T13:45:29;2.88;;;2.13;;
19219;SDS011;9744;49.364;7.484;2023-08-30T13:47:56;4.63;;;2.30;;
19219;SDS011;9744;49.364;7.484;2023-08-30T13:50:27;3.20;;;2.38;;
19219;SDS011;9744;49.364;7.484;2023-08-30T13:52:55;3.92;;;2.50;;
19219;SDS011;9744;49.364;7.484;2023-08-30T13:55:23;5.88;;;2.58;;
19219;SDS011;9744;49.364;7.484;2023-08-30T13:57:50;5.93;;;2.55;;
19219;SDS011;9744;49.364;7.484;2023-08-30T14:00:20;8.65;;;2.50;;
19219;SDS011;9744;49.364;7.484;2023-08-30T14:03:05;6.35;;;2.60;;
19219;SDS011;9744;49.364;7.484;2023-08-30T14:05:33;4.82;;;2.22;;
19219;SDS011;9744;49.364;7.484;2023-08-30T14:08:00;5.75;;;2.65;;
19219;SDS011;9744;49.364;7.484;2023-08-30T14:10:28;5.82;;;2.70;;
19219;SDS011;9744;49.364;7.484;2023-08-30T14:12:55;4.03;;;2.78;;
19219;SDS011;9744;49.364;7.484;2023-08-30T14:15:24;6.40;;;2.50;;
19219;SDS011;9744;49.364;7.484;2023-08-30T14:17:51;6.35;;;2.63;;
19219;SDS011;9744;49.364;7.484;2023-08-30T14:20:19;6.10;;;2.58;;
19219;SDS011;9744;49.364;7.484;2023-08-30T14:22:46;5.43;;;2.50;;
19219;SDS011;9744;49.364;7.484;2023-08-30T14:25:14;4.50;;;2.35;;
19219;SDS011;9744;49.364;7.484;2023-08-30T14:27:41;3.75;;;2.65;;
19219;SDS011;9744;49.364;7.484;2023-08-30T14:30:09;5.80;;;2.35;;
19219;SDS011;9744;49.364;7.484;2023-08-30T14:32:39;5.22;;;2.60;;
19219;SDS011;9744;49.364;7.484;2023-08-30T14:35:07;5.03;;;2.42;;
19219;SDS011;9744;49.364;7.484;2023-08-30T14:37:35;6.43;;;2.50;;
19219;SDS011;9744;49.364;7.484;2023-08-30T14:40:03;4.70;;;2.53;;
19219;SDS011;9744;49.364;7.484;2023-08-30T14:42:32;5.47;;;2.20;;
19219;SDS011;9744;49.364;7.484;2023-08-30T14:44:59;3.55;;;2.30;;
19219;SDS011;9744;49.364;7.484;2023-08-30T14:47:28;6.53;;;2.50;;
19219;SDS011;9744;49.364;7.484;2023-08-30T14:49:57;6.00;;;2.30;;
19219;SDS011;9744;49.364;7.484;2023-08-30T14:52:26;5.00;;;2.20;;
19219;SDS011;9744;49.364;7.484;2023-08-30T14:54:54;5.32;;;2.45;;
19219;SDS011;9744;49.364;7.484;2023-08-30T14:57:21;4.78;;;2.40;;
19219;SDS011;9744;49.364;7.484;2023-08-30T14:59:59;3.75;;;2.30;;
19219;SDS011;9744;49.364;7.484;2023-08-30T15:02:26;4.35;;;2.40;;
19219;SDS011;9744;49.364;7.484;2023-08-30T15:04:53;3.60;;;2.30;;
19219;SDS011;9744;49.364;7.484;2023-08-30T15:07:22;3.80;;;2.22;;
19219;SDS011;9744;49.364;7.484;2023-08-30T15:09:54;4.65;;;2.42;;
19219;SDS011;9744;49.364;7.484;2023-08-30T15:12:22;4.00;;;2.42;;
19219;SDS011;9744;49.364;7.484;2023-08-30T15:14:49;7.68;;;2.10;;